Time;durP1;ratioP1;P1;durP2;ratioP2;P2;SDS_P1;SDS_P2;PMS_P1;PMS_P2;Temp;Humidity;BMP_temperature;BMP_pressure;BME280_temperature;BME280_humidity;BME280_pressure;Samples;Min_cycle;Max_cycle;Signal;HPM_P1;HPM_P2
2022/03/22 00:00:34;;;;;;;6.20;3.42;;;;;;;16.01;24.52;94752.41;4921699;29;20055;-93
2022/03/22 00:02:59;;;;;;;4.88;3.33;;;;;;;15.98;24.14;94758.03;4923791;29;20062;-94
2022/03/22 00:05:25;;;;;;;4.53;3.20;;;;;;;15.98;24.72;94752.56;4907447;29;20036;-93
2022/03/22 00:07:52;;;;;;;5.10;3.50;;;;;;;15.98;24.34;94747.88;4907843;29;20099;-94
2022/03/22 00:10:17;;;;;;;5.63;3.80;;;;;;;16.00;24.34;94741.94;4923133;29;20062;-94
2022/03/22 00:12:43;;;;;;;4.88;3.50;;;;;;;15.98;24.34;94747.13;4924500;29;20055;-94
2022/03/22 00:15:10;;;;;;;5.32;2.97;;;;;;;15.98;24.68;94747.88;4919664;29;20032;-93
2022/03/22 00:17:36;;;;;;;6.25;3.47;;;;;;;15.95;24.59;94748.78;4904972;29;20040;-94
2022/03/22 00:20:03;;;;;;;5.35;3.10;;;;;;;15.95;24.33;94743.34;4905588;29;20043;-94
2022/03/22 00:22:28;;;;;;;6.20;3.72;;;;;;;15.97;24.61;94753.78;4910176;29;20091;-94
2022/03/22 00:24:54;;;;;;;5.50;3.60;;;;;;;15.98;24.54;94736.97;4907674;29;20052;-93
2022/03/22 00:27:20;;;;;;;5.70;3.20;;;;;;;15.98;24.64;94745.13;4922354;29;20496;-94
2022/03/22 00:29:48;;;;;;;5.43;4.03;;;;;;;15.93;24.82;94737.59;4937852;29;20044;-93
2022/03/22 00:32:13;;;;;;;4.38;3.40;;;;;;;15.96;24.75;94738.63;4922533;29;20075;-93
2022/03/22 00:34:44;;;;;;;5.20;3.85;;;;;;;15.97;24.41;94740.16;4907158;29;20039;-94
2022/03/22 00:37:14;;;;;;;6.72;3.92;;;;;;;15.96;24.43;94742.13;4922897;29;20063;-94
2022/03/22 00:39:41;;;;;;;5.83;3.20;;;;;;;15.96;24.56;94730.44;4923973;29;20075;-94
2022/03/22 00:42:07;;;;;;;6.75;3.47;;;;;;;15.94;24.30;94730.16;4922556;29;20278;-93
2022/03/22 00:44:32;;;;;;;4.88;3.45;;;;;;;15.96;24.60;94731.22;4920056;29;20051;-94
2022/03/22 00:46:59;;;;;;;4.35;2.88;;;;;;;15.96;24.74;94719.53;4917262;29;20100;-95
2022/03/22 00:49:25;;;;;;;5.72;3.42;;;;;;;15.94;24.73;94725.47;4887936;29;20040;-93
2022/03/22 00:51:50;;;;;;;3.50;2.78;;;;;;;15.96;24.49;94736.66;4903908;29;20050;-94
2022/03/22 00:54:15;;;;;;;6.38;3.20;;;;;;;15.92;24.55;94730.63;4920266;29;20048;-93
2022/03/22 00:56:42;;;;;;;4.50;3.03;;;;;;;15.94;24.91;94727.44;4922573;29;20043;-92
2022/03/22 01:01:53;;;;;;;4.70;3.05;;;;;;;15.97;24.78;94721.06;4922664;29;20466;-94
2022/03/22 01:04:19;;;;;;;6.45;3.40;;;;;;;15.94;24.56;94724.69;4921939;29;20044;-93
2022/03/22 01:06:44;;;;;;;6.03;3.08;;;;;;;15.96;24.86;94719.53;4929513;29;20054;-93
2022/03/22 01:09:10;;;;;;;4.32;3.20;;;;;;;15.93;24.91;94718.50;4921491;29;20043;-94
2022/03/22 01:11:36;;;;;;;4.80;3.00;;;;;;;15.94;24.89;94714.56;4922022;29;20043;-94
2022/03/22 01:14:01;;;;;;;4.25;3.08;;;;;;;15.94;24.88;94720.00;4921902;29;20036;-93
2022/03/22 01:16:30;;;;;;;4.43;3.33;;;;;;;15.94;24.94;94722.72;4919264;29;20040;-94
2022/03/22 01:18:56;;;;;;;6.30;3.20;;;;;;;15.95;24.45;94726.22;4934785;29;20044;-93
2022/03/22 01:21:22;;;;;;;3.72;2.80;;;;;;;15.91;24.83;94723.66;4917495;29;20047;-93
2022/03/22 01:23:50;;;;;;;6.32;3.20;;;;;;;15.92;24.83;94724.41;4887606;29;20041;-93
2022/03/22 01:26:15;;;;;;;4.40;3.08;;;;;;;15.95;24.69;94718.78;4889701;29;20035;-94
2022/03/22 01:28:40;;;;;;;4.57;2.58;;;;;;;15.93;24.85;94707.59;4921249;29;20554;-93
2022/03/22 01:31:08;;;;;;;5.75;3.05;;;;;;;15.93;24.98;94709.56;4920619;29;20509;-93
2022/03/22 01:33:33;;;;;;;4.63;3.15;;;;;;;15.92;24.90;94705.31;4920502;29;20031;-94
2022/03/22 01:35:59;;;;;;;5.25;3.30;;;;;;;15.94;24.74;94700.16;4921287;29;20046;-93
2022/03/22 01:38:25;;;;;;;4.15;3.13;;;;;;;15.93;24.82;94702.13;4904923;29;20043;-93
2022/03/22 01:40:50;;;;;;;3.67;2.85;;;;;;;15.92;24.70;94694.41;4905565;29;20040;-93
2022/03/22 01:43:15;;;;;;;3.95;2.90;;;;;;;15.93;24.99;94701.38;4919870;29;20032;-94
2022/03/22 01:45:41;;;;;;;4.03;2.80;;;;;;;15.92;24.93;94691.69;4922231;29;20040;-93
2022/03/22 01:48:07;;;;;;;3.72;2.88;;;;;;;15.93;24.67;94691.22;4923362;29;20068;-93
2022/03/22 01:50:32;;;;;;;3.22;2.72;;;;;;;15.96;24.95;94687.56;4889177;29;20047;-93
2022/03/22 01:53:00;;;;;;;3.58;2.50;;;;;;;15.91;25.02;94685.47;4889842;29;20044;-93
2022/03/22 01:55:25;;;;;;;3.42;2.60;;;;;;;15.91;24.81;94680.03;4906431;29;20036;-93
2022/03/22 01:57:51;;;;;;;3.80;2.95;;;;;;;15.93;24.98;94683.03;4915838;29;20051;-93
2022/03/22 02:00:17;;;;;;;5.13;3.08;;;;;;;15.92;24.86;94688.97;4918560;29;20103;-93
2022/03/22 02:08:12;;;;;;;5.03;2.90;;;;;;;15.91;24.62;94671.84;4909852;29;20074;-93
2022/03/22 02:10:38;;;;;;;3.42;2.70;;;;;;;15.94;24.87;94670.91;4901547;29;20036;-93
2022/03/22 02:13:04;;;;;;;3.67;3.15;;;;;;;15.92;25.13;94667.91;4900319;29;20047;-94
2022/03/22 02:15:29;;;;;;;3.50;2.88;;;;;;;15.93;24.96;94666.69;4901793;29;20211;-94
2022/03/22 02:17:55;;;;;;;4.55;2.60;;;;;;;15.89;25.08;94668.81;4918165;29;20031;-94
2022/03/22 02:20:21;;;;;;;4.00;2.58;;;;;;;15.89;24.91;94663.38;4919107;28;20048;-93
2022/03/22 02:23:01;;;;;;;3.75;3.03;;;;;;;15.89;25.07;94657.91;4903506;29;20043;-93
2022/03/22 02:25:27;;;;;;;4.45;3.35;;;;;;;15.90;24.79;94653.22;4935943;28;20517;-93
2022/03/22 02:27:52;;;;;;;4.03;2.95;;;;;;;15.92;24.96;94661.69;4919907;29;20035;-94
2022/03/22 02:30:18;;;;;;;5.20;2.90;;;;;;;15.88;25.03;94661.09;4919952;29;20040;-93
2022/03/22 02:33:01;;;;;;;4.05;2.75;;;;;;;15.89;24.93;94657.16;4905224;29;20051;-94
2022/03/22 02:35:26;;;;;;;7.55;2.80;;;;;;;15.92;24.93;94656.22;4920657;29;20043;-94
2022/03/22 02:37:52;;;;;;;3.17;2.83;;;;;;;15.90;25.07;94658.66;4921935;29;20036;-94
2022/03/22 02:40:19;;;;;;;4.60;3.20;;;;;;;15.90;24.82;94658.66;4917107;29;20067;-93
2022/03/22 02:42:49;;;;;;;3.67;2.80;;;;;;;15.90;25.03;94658.66;4886750;29;20414;-93
2022/03/22 02:45:15;;;;;;;3.08;2.50;;;;;;;15.90;25.16;94667.59;4900136;29;20047;-94
2022/03/22 02:47:40;;;;;;;4.05;3.15;;;;;;;15.87;24.97;94665.81;4900759;29;20060;-93
2022/03/22 02:50:06;;;;;;;2.97;2.50;;;;;;;15.87;24.96;94662.31;4918955;29;20047;-94
2022/03/22 02:52:32;;;;;;;4.35;2.60;;;;;;;15.87;25.15;94665.81;4919839;29;20119;-94
2022/03/22 02:54:57;;;;;;;3.92;2.85;;;;;;;15.88;25.15;94670.03;4906272;29;20066;-94
2022/03/22 02:57:23;;;;;;;4.30;3.30;;;;;;;15.90;25.14;94664.88;4905450;29;20067;-93
2022/03/22 02:59:50;;;;;;;5.68;2.70;;;;;;;15.91;25.08;94658.22;4932875;29;20110;-94
2022/03/22 03:02:16;;;;;;;3.97;2.67;;;;;;;15.89;25.14;94666.09;4915620;29;20071;-93
2022/03/22 03:04:42;;;;;;;4.00;3.10;;;;;;;15.87;25.28;94660.34;4901471;29;20044;-93
2022/03/22 03:07:07;;;;;;;4.43;2.40;;;;;;;15.88;25.22;94664.59;4934731;29;20354;-93
2022/03/22 03:09:34;;;;;;;3.72;2.50;;;;;;;15.87;25.03;94656.88;4911347;29;20039;-94
2022/03/22 03:12:01;;;;;;;5.38;2.60;;;;;;;15.86;25.08;94650.66;4919642;29;20498;-94
2022/03/22 03:14:38;;;;;;;5.60;2.78;;;;;;;15.87;24.97;94649.44;4920769;29;20035;-94
2022/03/22 03:17:05;;;;;;;3.95;2.72;;;;;;;15.90;24.93;94662.16;4920560;29;20366;-93
2022/03/22 03:19:31;;;;;;;3.28;2.40;;;;;;;15.84;24.85;94665.97;4917685;29;20032;-94
2022/03/22 03:21:56;;;;;;;3.95;2.90;;;;;;;15.85;24.94;94660.06;4901543;29;20066;-93
2022/03/22 03:24:22;;;;;;;3.42;2.55;;;;;;;15.86;25.14;94660.81;4913171;29;20048;-94
2022/03/22 03:26:47;;;;;;;5.00;3.00;;;;;;;15.86;25.17;94666.25;4901286;29;20037;-94
2022/03/22 03:29:13;;;;;;;3.30;2.30;;;;;;;15.83;24.97;94665.22;4905624;28;20032;-94
2022/03/22 03:31:38;;;;;;;3.53;2.72;;;;;;;15.84;25.33;94664.00;4904913;29;20067;-94
2022/03/22 03:34:04;;;;;;;3.67;2.75;;;;;;;15.85;25.18;94662.03;4920107;28;20039;-94
2022/03/22 03:36:29;;;;;;;3.67;2.75;;;;;;;15.87;25.00;94654.91;4919296;29;20047;-94
2022/03/22 03:38:55;;;;;;;3.85;2.60;;;;;;;15.87;25.21;94654.13;4920714;29;20529;-93
2022/03/22 03:47:11;;;;;;;4.30;2.70;;;;;;;15.86;25.53;94655.34;4920357;29;20047;-93
2022/03/22 03:49:41;;;;;;;3.60;2.35;;;;;;;15.82;25.12;94660.22;4897732;29;20134;-94
2022/03/22 03:52:09;;;;;;;3.85;2.42;;;;;;;15.82;25.11;94658.25;4882405;29;20072;-94
2022/03/22 03:54:35;;;;;;;3.20;2.55;;;;;;;15.86;25.25;94656.09;4883161;29;20522;-93
2022/03/22 03:57:00;;;;;;;3.53;2.67;;;;;;;15.83;25.12;94659.75;4883006;29;20040;-93
2022/03/22 03:59:28;;;;;;;4.53;2.70;;;;;;;15.83;25.12;94656.28;4866179;29;20047;-93
2022/03/22 04:01:53;;;;;;;2.75;2.28;;;;;;;15.83;25.13;94664.47;4883960;29;20119;-93
2022/03/22 04:04:19;;;;;;;3.67;2.60;;;;;;;15.83;25.18;94667.19;4883197;29;20498;-94
2022/03/22 04:06:45;;;;;;;3.58;2.47;;;;;;;15.84;25.42;94663.25;4899938;29;20430;-93
2022/03/22 04:09:10;;;;;;;3.10;2.50;;;;;;;15.81;25.18;94664.91;4882333;29;20550;-94
2022/03/22 04:11:44;;;;;;;3.60;2.40;;;;;;;15.83;25.24;94672.63;4884075;29;20052;-93
2022/03/22 04:14:10;;;;;;;3.67;2.58;;;;;;;15.85;24.95;94665.50;4883744;29;20044;-94
2022/03/22 04:16:39;;;;;;;4.57;2.60;;;;;;;15.84;25.17;94661.28;4884136;29;20055;-95
2022/03/22 04:19:07;;;;;;;3.78;2.65;;;;;;;15.83;25.22;94661.72;4884233;29;20032;-94
2022/03/22 04:21:34;;;;;;;3.35;2.42;;;;;;;15.82;25.22;94662.94;4919747;29;20490;-93
2022/03/22 04:24:05;;;;;;;3.35;2.50;;;;;;;15.86;25.25;94661.56;4918841;29;20103;-94
2022/03/22 04:26:39;;;;;;;2.80;2.40;;;;;;;15.83;25.13;94667.19;4918852;29;20039;-93
2022/03/22 04:34:33;;;;;;;3.40;2.47;;;;;;;15.83;25.15;94659.00;4903979;29;20558;-94
2022/03/22 04:36:59;;;;;;;3.60;2.50;;;;;;;15.83;25.16;94665.22;4905340;29;20041;-94
2022/03/22 04:39:27;;;;;;;4.22;2.60;;;;;;;15.81;25.15;94667.66;4912633;29;20036;-96
2022/03/22 04:41:53;;;;;;;3.28;2.50;;;;;;;15.86;25.17;94666.25;4924392;29;20074;-93
2022/03/22 04:44:18;;;;;;;2.50;2.28;;;;;;;15.80;25.29;94666.16;4922327;29;20091;-94
2022/03/22 04:46:44;;;;;;;3.17;2.28;;;;;;;15.82;24.96;94669.16;4922485;29;20054;-93
2022/03/22 04:49:09;;;;;;;3.67;2.33;;;;;;;15.81;25.17;94672.34;4907137;28;20048;-95
2022/03/22 04:57:04;;;;;;;3.03;2.67;;;;;;;15.84;25.03;94682.31;4918463;29;20112;-93
2022/03/22 04:59:31;;;;;;;3.40;2.00;;;;;;;15.84;25.12;94687.78;4925097;29;20048;-94
2022/03/22 05:01:57;;;;;;;2.85;2.20;;;;;;;15.79;25.43;94680.25;4925793;23;20056;-93
2022/03/22 05:04:22;;;;;;;3.25;2.40;;;;;;;15.82;25.26;94679.31;4907164;29;20586;-93
2022/03/22 05:06:48;;;;;;;2.67;2.22;;;;;;;15.81;25.16;94684.00;4908357;29;20051;-93
2022/03/22 05:09:13;;;;;;;4.53;2.55;;;;;;;15.83;25.32;94686.28;4907466;29;20044;-94
2022/03/22 05:11:42;;;;;;;2.95;2.17;;;;;;;15.80;25.05;94682.53;4910138;29;20042;-95
2022/03/22 05:14:09;;;;;;;3.67;2.30;;;;;;;15.84;25.40;94685.06;4941447;29;20107;-94
2022/03/22 05:16:35;;;;;;;3.30;2.20;;;;;;;15.80;24.77;94679.78;4919413;29;20067;-95
2022/03/22 05:19:04;;;;;;;4.03;2.60;;;;;;;15.80;25.02;94679.78;4921545;29;20058;-93
2022/03/22 05:21:32;;;;;;;3.58;2.55;;;;;;;15.83;25.06;94680.81;4902154;29;20047;-92
2022/03/22 05:23:57;;;;;;;3.10;2.47;;;;;;;15.83;25.13;94687.03;4921701;29;20032;-92
2022/03/22 05:26:25;;;;;;;2.97;2.28;;;;;;;15.82;25.18;94682.78;4926384;29;20119;-92
2022/03/22 05:28:54;;;;;;;3.55;2.42;;;;;;;15.83;25.03;94678.09;4927429;29;20059;-94
2022/03/22 05:31:21;;;;;;;60.17;12.43;;;;;;;15.89;25.13;94684.44;4938935;29;20066;-91
2022/03/22 05:33:49;;;;;;;10.32;4.82;;;;;;;15.89;25.30;94682.44;4920580;29;20103;-93
2022/03/22 05:36:15;;;;;;;24.15;11.70;;;;;;;15.89;25.08;94679.72;4922892;29;20055;-91
2022/03/22 05:38:44;;;;;;;31.55;14.15;;;;;;;15.94;25.80;94681.06;4900910;29;20043;-93
2022/03/22 05:41:09;;;;;;;15.65;7.63;;;;;;;15.94;24.83;94686.53;4920114;29;20054;-93
2022/03/22 05:43:39;;;;;;;33.53;11.68;;;;;;;16.03;25.34;94697.38;4917600;29;20048;-93
2022/03/22 05:46:08;;;;;;;25.58;7.15;;;;;;;16.03;25.49;94689.19;4916470;29;20051;-93
2022/03/22 05:48:33;;;;;;;15.75;7.88;;;;;;;16.03;24.90;94695.38;4898537;29;20051;-88
2022/03/22 05:51:00;;;;;;;23.35;8.50;;;;;;;16.08;25.35;94692.03;4913104;29;20048;-93
2022/03/22 05:53:25;;;;;;;48.20;11.52;;;;;;;16.11;24.32;94695.81;4897780;29;20028;-91
2022/03/22 05:55:51;;;;;;;37.63;8.48;;;;;;;15.88;21.50;94682.91;4888467;29;20083;-91
2022/03/22 05:58:16;;;;;;;25.13;6.85;;;;;;;15.90;20.36;94685.94;4883308;29;20051;-91
2022/03/22 06:00:42;;;;;;;27.00;7.78;;;;;;;15.79;20.44;94688.44;4893674;29;20044;-90
2022/03/22 06:03:07;;;;;;;39.58;8.15;;;;;;;15.70;19.04;94689.97;4881653;29;20047;-92
2022/03/22 06:05:34;;;;;;;20.13;8.60;;;;;;;15.61;18.38;94687.28;4883363;29;20082;-92
2022/03/22 06:08:00;;;;;;;32.80;8.93;;;;;;;15.63;18.42;94693.03;4884815;29;20072;-93
2022/03/22 06:10:28;;;;;;;52.22;12.95;;;;;;;15.55;17.31;94689.13;4877192;29;20119;-93
2022/03/22 06:12:55;;;;;;;35.72;11.15;;;;;;;15.48;17.79;94683.25;4907796;29;20044;-91
2022/03/22 06:15:47;;;;;;;44.38;12.68;;;;;;;15.44;17.96;94688.84;4891641;29;20044;-92
2022/03/22 06:18:13;;;;;;;56.28;13.13;;;;;;;15.42;17.53;94689.31;4917912;23;20053;-92
2022/03/22 06:20:42;;;;;;;37.95;11.35;;;;;;;15.44;17.85;94686.13;4863375;29;20080;-92
2022/03/22 06:23:11;;;;;;;52.63;11.77;;;;;;;15.50;17.75;94697.16;4859564;29;20060;-90
2022/03/22 06:25:37;;;;;;;38.35;10.50;;;;;;;15.54;17.83;94695.03;4848706;29;20048;-91
2022/03/22 06:28:04;;;;;;;42.85;12.35;;;;;;;15.61;18.68;94697.44;4866345;29;20487;-89
2022/03/22 06:30:30;;;;;;;49.78;14.52;;;;;;;15.65;18.52;94706.97;4865166;29;20061;-95
2022/03/22 06:32:58;;;;;;;33.25;13.65;;;;;;;15.70;20.20;94697.41;4870491;29;20094;-92
2022/03/22 06:35:25;;;;;;;54.78;18.80;;;;;;;15.75;19.87;94688.59;4829574;29;20037;-89
2022/03/22 06:37:51;;;;;;;73.25;24.20;;;;;;;15.83;21.11;94702.63;4859795;29;20132;-89
2022/03/22 06:40:17;;;;;;;55.85;19.92;;;;;;;15.90;20.60;94700.31;4854021;29;20172;-89
2022/03/22 06:42:43;;;;;;;63.72;22.25;;;;;;;15.93;20.33;94698.66;4862944;29;20073;-88
2022/03/22 06:45:10;;;;;;;72.88;26.50;;;;;;;15.95;21.21;94707.13;4840123;29;20048;-86
2022/03/22 06:47:35;;;;;;;40.42;16.67;;;;;;;15.94;21.67;94703.66;4852654;29;20409;-88
2022/03/22 06:50:01;;;;;;;52.17;20.85;;;;;;;15.98;20.77;94706.97;4843486;29;20144;-88
2022/03/22 06:52:27;;;;;;;52.00;21.48;;;;;;;15.98;20.96;94696.06;4858730;29;20592;-87
2022/03/22 06:54:52;;;;;;;50.75;19.15;;;;;;;16.03;22.57;94705.53;4858404;29;20047;-89
2022/03/22 06:57:18;;;;;;;54.15;23.95;;;;;;;16.05;21.57;94712.06;4858414;29;20071;-89
2022/03/22 06:59:44;;;;;;;121.85;44.22;;;;;;;16.09;21.26;94700.97;4839273;29;20052;-90
2022/03/22 07:02:10;;;;;;;196.38;79.78;;;;;;;16.13;22.56;94711.72;4857962;29;20041;-91
2022/03/22 07:04:35;;;;;;;169.70;69.63;;;;;;;16.14;22.85;94713.22;4844042;29;20044;-91
2022/03/22 07:07:01;;;;;;;145.48;61.20;;;;;;;16.16;23.26;94708.81;4845665;29;20045;-96
2022/03/22 07:09:26;;;;;;;124.50;48.38;;;;;;;16.22;22.77;94711.66;4876496;29;20041;-89
2022/03/22 07:11:52;;;;;;;129.75;56.55;;;;;;;16.26;21.86;94717.69;4844187;29;20109;-91
2022/03/22 07:14:22;;;;;;;104.85;48.47;;;;;;;16.20;21.57;94719.56;4856938;29;20601;-93
2022/03/22 07:16:47;;;;;;;91.00;42.58;;;;;;;16.24;21.74;94723.59;4858729;29;20061;-92
2022/03/22 07:19:16;;;;;;;108.05;44.63;;;;;;;16.25;21.72;94722.38;4865830;29;20056;-91
2022/03/22 07:21:42;;;;;;;66.05;30.33;;;;;;;16.25;21.35;94729.81;4853952;29;20116;-91
2022/03/22 07:24:08;;;;;;;54.83;21.73;;;;;;;16.21;19.42;94729.25;4873178;29;20537;-91
2022/03/22 07:26:34;;;;;;;42.25;18.33;;;;;;;16.12;18.80;94721.88;4842767;29;20497;-91
2022/03/22 07:28:59;;;;;;;40.25;18.35;;;;;;;16.15;19.67;94723.69;4872958;29;20096;-90
2022/03/22 07:31:25;;;;;;;45.30;20.85;;;;;;;16.16;19.73;94741.56;4842293;29;20374;-89
2022/03/22 07:33:50;;;;;;;50.97;20.10;;;;;;;16.16;19.12;94727.91;4849072;29;20038;-93
2022/03/22 07:36:16;;;;;;;55.75;25.88;;;;;;;16.20;19.92;94727.75;4869192;29;20037;-91
2022/03/22 07:38:42;;;;;;;87.07;34.75;;;;;;;16.25;20.42;94738.00;4842780;29;20055;-91
2022/03/22 07:41:08;;;;;;;94.55;38.28;;;;;;;16.26;21.06;94734.81;4841888;29;20033;-91
2022/03/22 07:43:33;;;;;;;60.10;29.63;;;;;;;16.26;21.79;94731.31;4840071;29;20120;-92
2022/03/22 07:45:59;;;;;;;78.63;30.92;;;;;;;16.29;21.27;94731.16;4871782;29;20836;-91
2022/03/22 07:48:24;;;;;;;70.95;30.90;;;;;;;16.28;21.36;94731.63;4858038;29;20037;-93
2022/03/22 07:53:34;;;;;;;122.15;30.25;;;;;;;16.33;21.69;94730.97;4859204;29;20105;-91
2022/03/22 07:55:59;;;;;;;147.52;35.97;;;;;;;16.32;21.09;94729.47;4840623;29;20038;-93
2022/03/22 07:58:25;;;;;;;162.95;34.63;;;;;;;16.34;22.38;94740.69;4865327;29;20048;-92
2022/03/22 08:00:50;;;;;;;168.18;37.50;;;;;;;16.38;20.94;94739.28;4851906;29;20512;-92
2022/03/22 08:03:17;;;;;;;154.68;33.65;;;;;;;16.29;19.29;94750.25;4856112;29;20045;-91
2022/03/22 08:05:46;;;;;;;79.93;22.10;;;;;;;16.27;19.67;94741.03;4857468;29;20037;-92
2022/03/22 08:08:12;;;;;;;56.90;17.77;;;;;;;16.27;18.91;94744.50;4858088;29;20573;-90
2022/03/22 08:10:38;;;;;;;44.13;15.32;;;;;;;16.21;18.07;94734.72;4873398;29;20041;-92
2022/03/22 08:13:06;;;;;;;35.58;14.10;;;;;;;16.20;18.31;94744.13;4857804;29;20086;-92
2022/03/22 08:15:31;;;;;;;50.88;13.88;;;;;;;16.21;17.43;94740.16;4846017;29;20053;-92
2022/03/22 08:17:56;;;;;;;46.85;15.10;;;;;;;16.18;17.19;94735.63;4882038;29;20062;-90
2022/03/22 08:20:24;;;;;;;36.13;13.98;;;;;;;16.15;17.32;94748.22;4869909;29;20052;-94
2022/03/22 08:22:54;;;;;;;33.53;11.98;;;;;;;16.22;17.37;94741.69;4884116;29;20044;-92
2022/03/22 08:25:30;;;;;;;37.77;11.17;;;;;;;16.21;17.16;94740.16;4884102;29;20528;-92
2022/03/22 08:27:57;;;;;;;30.00;10.38;;;;;;;16.15;17.19;94748.22;4868122;29;20117;-92
2022/03/22 08:30:22;;;;;;;26.23;9.35;;;;;;;16.15;16.86;94733.84;4867660;29;20052;-90
2022/03/22 08:32:49;;;;;;;26.20;9.50;;;;;;;16.15;16.83;94740.03;4912007;29;20377;-93
2022/03/22 08:35:15;;;;;;;24.27;9.63;;;;;;;16.18;17.80;94733.66;4885564;29;20070;-92
2022/03/22 08:37:40;;;;;;;34.33;9.32;;;;;;;16.21;18.99;94735.47;4888217;29;20456;-93
2022/03/22 08:40:06;;;;;;;58.28;12.32;;;;;;;16.23;17.67;94735.75;4861885;29;20045;-93
2022/03/22 08:42:32;;;;;;;68.07;13.05;;;;;;;16.31;17.81;94731.44;4884330;29;20139;-94
2022/03/22 08:44:57;;;;;;;126.18;25.38;;;;;;;16.27;20.32;94735.56;4899933;29;20106;-93
2022/03/22 08:47:23;;;;;;;161.02;28.73;;;;;;;16.29;18.70;94747.53;4873514;29;20064;-91
2022/03/22 08:49:49;;;;;;;120.75;23.02;;;;;;;16.32;19.34;94724.78;4900628;29;20040;-92
2022/03/22 08:52:14;;;;;;;112.63;22.60;;;;;;;16.33;19.18;94728.25;4884202;29;20054;-94
2022/03/22 08:54:54;;;;;;;84.35;19.73;;;;;;;16.32;19.86;94734.94;4886348;29;20040;-94
2022/03/22 08:57:19;;;;;;;78.35;19.10;;;;;;;16.33;19.31;94720.81;4833812;29;20054;-92
2022/03/22 08:59:46;;;;;;;69.40;21.20;;;;;;;16.34;19.26;94721.56;4838621;29;20050;-93
2022/03/22 09:02:12;;;;;;;74.25;21.63;;;;;;;16.35;19.11;94723.84;4823676;29;20053;-91
2022/03/22 09:07:21;;;;;;;52.90;18.67;;;;;;;16.34;19.70;94722.34;4822104;29;20122;-92
2022/03/22 09:09:47;;;;;;;76.57;20.90;;;;;;;16.38;19.49;94720.19;4825133;29;20695;-92
2022/03/22 09:12:14;;;;;;;59.33;23.05;;;;;;;16.39;19.31;94718.22;4820336;29;20070;-94
2022/03/22 09:14:40;;;;;;;67.30;21.30;;;;;;;16.38;19.45;94713.97;4851166;29;20594;-92
2022/03/22 09:17:07;;;;;;;48.38;18.83;;;;;;;16.38;20.07;94717.47;4824314;29;20129;-90
2022/03/22 09:19:36;;;;;;;48.60;16.83;;;;;;;16.40;19.74;94727.91;4837815;29;20073;-94
2022/03/22 09:22:05;;;;;;;55.20;18.27;;;;;;;16.43;19.96;94722.28;4813883;29;20060;-92
2022/03/22 09:24:32;;;;;;;45.00;18.65;;;;;;;16.42;20.14;94709.09;4860229;29;20041;-94
2022/03/22 09:26:57;;;;;;;51.78;17.42;;;;;;;16.42;19.88;94720.78;4858773;29;20133;-94
2022/03/22 09:29:23;;;;;;;115.13;22.50;;;;;;;16.41;20.07;94711.06;4820450;29;20061;-91
2022/03/22 09:31:50;;;;;;;84.10;22.88;;;;;;;16.43;20.41;94716.81;4838440;29;20050;-92
2022/03/22 09:34:16;;;;;;;57.45;18.67;;;;;;;16.46;20.39;94724.06;4840997;29;20049;-91
2022/03/22 09:36:42;;;;;;;58.05;20.75;;;;;;;16.50;20.17;94725.84;4830770;29;20045;-90
2022/03/22 09:39:07;;;;;;;131.32;30.98;;;;;;;16.49;20.12;94725.09;4851043;29;20149;-90
2022/03/22 09:41:33;;;;;;;408.55;75.18;;;;;;;16.47;20.88;94724.81;4856780;29;20073;-88
2022/03/22 09:43:59;;;;;;;264.50;49.85;;;;;;;16.49;20.20;94732.53;4866774;29;20048;-91
2022/03/22 09:46:24;;;;;;;280.50;47.45;;;;;;;16.47;19.89;94722.06;4854444;29;20564;-93
2022/03/22 09:48:51;;;;;;;173.68;37.35;;;;;;;16.46;19.85;94709.66;4858914;29;20173;-93
2022/03/22 09:51:50;;;;;;;88.32;23.23;;;;;;;16.52;19.91;94713.25;4879913;29;20124;-89
2022/03/22 09:54:08;;;;;;;587.88;88.88;;;;;;;16.49;20.05;94714.19;4866552;29;20037;-93
2022/03/22 09:56:34;;;;;;;247.65;41.80;;;;;;;16.49;20.65;94735.25;4880780;29;20100;-90
2022/03/22 09:59:04;;;;;;;219.30;37.28;;;;;;;16.46;19.82;94712.38;4881034;29;20036;-90
2022/03/22 10:01:31;;;;;;;106.18;24.75;;;;;;;16.45;21.02;94714.34;4866403;29;20105;-91
2022/03/22 10:04:07;;;;;;;145.82;30.90;;;;;;;16.46;20.15;94715.88;4846307;29;20123;-91
2022/03/22 10:06:32;;;;;;;88.68;21.80;;;;;;;16.45;19.74;94714.34;4871171;29;20037;-92
2022/03/22 10:09:01;;;;;;;144.13;39.50;;;;;;;16.48;19.95;94706.47;4823400;29;20058;-92
2022/03/22 10:11:42;;;;;;;132.15;40.50;;;;;;;16.46;19.99;94710.41;4790343;29;20110;-93
2022/03/22 10:14:09;;;;;;;;;;;;;;;16.49;20.90;94706.00;4827778;29;20069;-92
2022/03/22 10:16:50;;;;;;;196.32;78.78;;;;;;;16.46;20.45;94696.75;4803208;29;20019;-92
2022/03/22 10:22:51;;;;;;;;;;;;;;;;;;;;;
2022/03/22 10:25:39;;;;;;;94.18;36.03;;;;;;;16.46;20.51;94721.31;4822041;29;20444;-91
2022/03/22 10:28:35;;;;;;;90.43;31.50;;;;;;;16.46;20.88;94720.56;4795874;29;20053;-95
2022/03/22 10:31:02;;;;;;;88.90;28.42;;;;;;;16.49;20.68;94710.69;4795101;29;20097;-93
2022/03/22 10:33:27;;;;;;;75.88;28.50;;;;;;;16.47;19.73;94705.69;4797603;29;20038;-92
2022/03/22 10:35:53;;;;;;;84.22;29.85;;;;;;;16.48;20.32;94715.41;4795053;29;20046;-95
2022/03/22 10:38:19;;;;;;;57.67;24.90;;;;;;;16.46;21.13;94701.47;4808248;29;20584;-93
2022/03/22 10:40:49;;;;;;;66.45;25.17;;;;;;;16.49;19.67;94702.50;4810895;29;20100;-95
2022/03/22 10:45:57;;;;;;;73.07;29.30;;;;;;;16.49;21.72;94706.00;5070120;23;20062;-93
2022/03/22 10:48:28;;;;;;;125.47;44.10;;;;;;;16.52;20.41;94705.06;4904548;29;20039;-95
2022/03/22 10:50:55;;;;;;;103.63;35.78;;;;;;;16.54;19.94;94688.22;4901330;29;20055;-91
2022/03/22 10:53:22;;;;;;;109.95;48.13;;;;;;;16.52;20.56;94691.41;4895911;29;20079;-92
2022/03/22 10:55:48;;;;;;;105.07;42.78;;;;;;;16.51;20.41;94706.28;4891667;29;20040;-92
2022/03/22 10:58:19;;;;;;;72.18;28.77;;;;;;;16.53;20.97;94687.47;4898965;28;20020;-92
2022/03/22 11:00:45;;;;;;;102.10;32.63;;;;;;;16.56;20.92;94692.00;4897794;29;20081;-89
2022/03/22 11:03:12;;;;;;;513.65;79.95;;;;;;;16.55;20.35;94684.28;4932311;29;20380;-93
2022/03/22 11:05:37;;;;;;;75.22;27.92;;;;;;;16.53;20.29;94689.44;4900021;29;20039;-94
2022/03/22 11:08:03;;;;;;;78.88;28.90;;;;;;;16.52;20.36;94701.59;4913412;29;20032;-90
2022/03/22 11:11:30;;;;;;;89.05;28.50;;;;;;;16.53;20.63;94695.66;4884405;28;20060;-93
2022/03/22 11:13:58;;;;;;;68.72;26.15;;;;;;;16.53;20.19;94694.91;4815091;23;20111;-95
2022/03/22 11:16:27;;;;;;;81.72;27.33;;;;;;;16.52;20.50;94685.97;4864987;29;20123;-92
2022/03/22 11:18:54;;;;;;;112.25;57.60;;;;;;;16.52;21.59;94685.97;4857601;29;20040;-92
2022/03/22 11:21:19;;;;;;;96.28;42.58;;;;;;;16.55;21.65;94690.47;4866809;29;20452;-92
2022/03/22 11:23:47;;;;;;;57.85;24.65;;;;;;;16.59;21.39;94687.56;4857699;29;20115;-94
2022/03/22 11:26:22;;;;;;;44.53;23.20;;;;;;;16.60;21.32;94691.81;4883123;29;20179;-94
2022/03/22 11:28:53;;;;;;;46.03;21.63;;;;;;;16.63;21.38;94690.88;4869995;29;20044;-94
2022/03/22 11:31:23;;;;;;;57.58;22.00;;;;;;;16.65;22.13;94681.03;4837822;29;20414;-95
2022/03/22 11:36:44;;;;;;;50.80;20.27;;;;;;;16.67;21.13;94688.75;4842488;29;20060;-92
2022/03/22 11:39:14;;;;;;;40.00;18.05;;;;;;;16.66;20.93;94679.81;4837403;29;20052;-90
2022/03/22 11:44:35;;;;;;;42.85;17.55;;;;;;;16.61;23.05;94674.97;4835103;29;20337;-92
2022/03/22 11:47:14;;;;;;;56.08;18.48;;;;;;;16.60;22.43;94673.47;4844217;29;20064;-92
2022/03/22 11:49:58;;;;;;;40.20;17.90;;;;;;;16.58;22.61;94678.63;4847461;29;20042;-93
2022/03/22 11:52:26;;;;;;;45.05;17.48;;;;;;;16.58;22.92;94669.69;4846950;29;20041;-90
2022/03/22 11:54:55;;;;;;;47.95;17.42;;;;;;;16.57;22.83;94684.56;4845849;29;20064;-90
2022/03/22 11:57:23;;;;;;;67.07;22.35;;;;;;;16.54;23.78;94680.78;4825572;29;20041;-89
2022/03/22 11:59:52;;;;;;;50.58;18.80;;;;;;;16.56;22.80;94667.44;4843068;29;20045;-90
2022/03/22 12:02:20;;;;;;;53.35;17.50;;;;;;;16.54;23.42;94663.66;4857117;29;20044;-88
2022/03/22 12:04:50;;;;;;;36.25;17.33;;;;;;;16.54;23.01;94660.94;4867173;29;20052;-90
2022/03/22 12:07:22;;;;;;;47.20;16.75;;;;;;;16.55;23.24;94657.72;4875696;29;20044;-89